sensor_id;sensor_type;location;lat;lon;timestamp;P1;durP1;ratioP1;P2;durP2;ratioP2
16304;SDS011;8261;47.678;-122.174;2022-11-03T00:00:09;2.00;;;1.83;;
16304;SDS011;8261;47.678;-122.174;2022-11-03T00:02:41;2.27;;;2.07;;
16304;SDS011;8261;47.678;-122.174;2022-11-03T00:05:12;3.73;;;1.70;;
16304;SDS011;8261;47.678;-122.174;2022-11-03T00:08:01;1.43;;;1.33;;
16304;SDS011;8261;47.678;-122.174;2022-11-03T00:10:33;2.77;;;2.03;;
16304;SDS011;8261;47.678;-122.174;2022-11-03T00:13:07;1.70;;;1.60;;
16304;SDS011;8261;47.678;-122.174;2022-11-03T00:15:46;1.93;;;1.53;;
16304;SDS011;8261;47.678;-122.174;2022-11-03T00:18:18;1.73;;;1.50;;
16304;SDS011;8261;47.678;-122.174;2022-11-03T00:20:54;2.63;;;1.70;;
16304;SDS011;8261;47.678;-122.174;2022-11-03T00:23:27;1.67;;;1.40;;
16304;SDS011;8261;47.678;-122.174;2022-11-03T00:26:03;1.90;;;1.70;;
16304;SDS011;8261;47.678;-122.174;2022-11-03T00:28:39;2.23;;;2.03;;
16304;SDS011;8261;47.678;-122.174;2022-11-03T00:31:12;1.50;;;1.40;;
16304;SDS011;8261;47.678;-122.174;2022-11-03T00:33:44;2.50;;;2.30;;
16304;SDS011;8261;47.678;-122.174;2022-11-03T00:36:16;3.33;;;2.40;;
16304;SDS011;8261;47.678;-122.174;2022-11-03T00:38:49;3.73;;;2.23;;
16304;SDS011;8261;47.678;-122.174;2022-11-03T00:41:20;2.60;;;2.20;;
16304;SDS011;8261;47.678;-122.174;2022-11-03T00:43:55;2.50;;;2.30;;
16304;SDS011;8261;47.678;-122.174;2022-11-03T00:46:26;2.50;;;2.27;;
16304;SDS011;8261;47.678;-122.174;2022-11-03T00:49:02;3.40;;;2.03;;
16304;SDS011;8261;47.678;-122.174;2022-11-03T00:51:35;1.90;;;1.77;;
16304;SDS011;8261;47.678;-122.174;2022-11-03T00:54:06;2.37;;;1.90;;
16304;SDS011;8261;47.678;-122.174;2022-11-03T00:56:37;3.17;;;2.37;;
16304;SDS011;8261;47.678;-122.174;2022-11-03T00:59:13;2.93;;;2.63;;
16304;SDS011;8261;47.678;-122.174;2022-11-03T01:01:44;4.30;;;3.30;;
16304;SDS011;8261;47.678;-122.174;2022-11-03T01:04:15;3.73;;;3.23;;
16304;SDS011;8261;47.678;-122.174;2022-11-03T01:07:04;4.27;;;3.70;;
16304;SDS011;8261;47.678;-122.174;2022-11-03T01:09:36;3.80;;;2.93;;
16304;SDS011;8261;47.678;-122.174;2022-11-03T01:12:08;4.10;;;2.70;;
16304;SDS011;8261;47.678;-122.174;2022-11-03T01:14:43;2.73;;;2.20;;
16304;SDS011;8261;47.678;-122.174;2022-11-03T01:17:17;2.97;;;2.30;;
16304;SDS011;8261;47.678;-122.174;2022-11-03T01:19:50;4.30;;;3.00;;
16304;SDS011;8261;47.678;-122.174;2022-11-03T01:22:22;4.90;;;4.37;;
16304;SDS011;8261;47.678;-122.174;2022-11-03T01:24:53;4.00;;;3.60;;
16304;SDS011;8261;47.678;-122.174;2022-11-03T01:27:24;4.70;;;3.87;;
16304;SDS011;8261;47.678;-122.174;2022-11-03T01:29:58;4.23;;;3.93;;
16304;SDS011;8261;47.678;-122.174;2022-11-03T01:32:29;5.77;;;3.77;;
16304;SDS011;8261;47.678;-122.174;2022-11-03T01:35:00;4.13;;;3.70;;
16304;SDS011;8261;47.678;-122.174;2022-11-03T01:37:32;3.57;;;3.27;;
16304;SDS011;8261;47.678;-122.174;2022-11-03T01:40:03;4.23;;;3.30;;
16304;SDS011;8261;47.678;-122.174;2022-11-03T01:42:38;5.00;;;3.43;;
16304;SDS011;8261;47.678;-122.174;2022-11-03T01:45:12;5.03;;;3.80;;
16304;SDS011;8261;47.678;-122.174;2022-11-03T01:47:43;4.00;;;3.70;;
16304;SDS011;8261;47.678;-122.174;2022-11-03T01:50:15;5.17;;;4.43;;
16304;SDS011;8261;47.678;-122.174;2022-11-03T01:52:49;6.50;;;4.70;;
16304;SDS011;8261;47.678;-122.174;2022-11-03T01:55:24;4.87;;;4.37;;
16304;SDS011;8261;47.678;-122.174;2022-11-03T01:57:58;4.00;;;3.60;;
16304;SDS011;8261;47.678;-122.174;2022-11-03T02:00:35;3.27;;;2.97;;
16304;SDS011;8261;47.678;-122.174;2022-11-03T02:03:06;5.00;;;4.47;;
16304;SDS011;8261;47.678;-122.174;2022-11-03T02:05:39;6.00;;;4.60;;
16304;SDS011;8261;47.678;-122.174;2022-11-03T02:08:13;6.37;;;4.50;;
16304;SDS011;8261;47.678;-122.174;2022-11-03T02:10:48;5.23;;;4.10;;
16304;SDS011;8261;47.678;-122.174;2022-11-03T02:13:20;3.93;;;3.63;;
16304;SDS011;8261;47.678;-122.174;2022-11-03T02:15:56;4.17;;;3.80;;
16304;SDS011;8261;47.678;-122.174;2022-11-03T02:18:30;4.23;;;3.80;;
16304;SDS011;8261;47.678;-122.174;2022-11-03T02:21:04;4.73;;;3.30;;
16304;SDS011;8261;47.678;-122.174;2022-11-03T02:23:48;4.37;;;2.67;;
16304;SDS011;8261;47.678;-122.174;2022-11-03T02:26:26;3.33;;;2.77;;
16304;SDS011;8261;47.678;-122.174;2022-11-03T02:28:57;3.10;;;2.80;;
16304;SDS011;8261;47.678;-122.174;2022-11-03T02:31:31;3.30;;;2.60;;
16304;SDS011;8261;47.678;-122.174;2022-11-03T02:34:07;3.77;;;3.20;;
16304;SDS011;8261;47.678;-122.174;2022-11-03T02:36:47;3.43;;;3.00;;
16304;SDS011;8261;47.678;-122.174;2022-11-03T02:39:23;2.90;;;2.53;;
16304;SDS011;8261;47.678;-122.174;2022-11-03T02:41:59;4.20;;;3.20;;
16304;SDS011;8261;47.678;-122.174;2022-11-03T02:44:33;5.27;;;3.97;;
16304;SDS011;8261;47.678;-122.174;2022-11-03T02:47:08;7.07;;;4.60;;
16304;SDS011;8261;47.678;-122.174;2022-11-03T02:49:40;5.83;;;4.40;;
16304;SDS011;8261;47.678;-122.174;2022-11-03T02:52:29;6.10;;;5.17;;
16304;SDS011;8261;47.678;-122.174;2022-11-03T02:55:06;4.80;;;3.83;;
16304;SDS011;8261;47.678;-122.174;2022-11-03T02:57:45;6.07;;;3.83;;
16304;SDS011;8261;47.678;-122.174;2022-11-03T03:00:20;4.00;;;3.60;;
16304;SDS011;8261;47.678;-122.174;2022-11-03T03:02:54;4.30;;;3.90;;
16304;SDS011;8261;47.678;-122.174;2022-11-03T03:05:32;5.53;;;4.97;;
16304;SDS011;8261;47.678;-122.174;2022-11-03T03:08:04;5.37;;;4.40;;
16304;SDS011;8261;47.678;-122.174;2022-11-03T03:10:40;6.00;;;5.40;;
16304;SDS011;8261;47.678;-122.174;2022-11-03T03:13:16;6.23;;;5.03;;
16304;SDS011;8261;47.678;-122.174;2022-11-03T03:15:55;7.63;;;5.73;;
16304;SDS011;8261;47.678;-122.174;2022-11-03T03:18:39;6.90;;;6.10;;
16304;SDS011;8261;47.678;-122.174;2022-11-03T03:21:16;6.03;;;4.67;;
16304;SDS011;8261;47.678;-122.174;2022-11-03T03:23:53;5.20;;;4.53;;
16304;SDS011;8261;47.678;-122.174;2022-11-03T03:26:28;5.10;;;4.20;;
16304;SDS011;8261;47.678;-122.174;2022-11-03T03:29:06;4.83;;;4.17;;
16304;SDS011;8261;47.678;-122.174;2022-11-03T03:31:44;3.43;;;3.13;;
16304;SDS011;8261;47.678;-122.174;2022-11-03T03:34:20;3.20;;;2.90;;
16304;SDS011;8261;47.678;-122.174;2022-11-03T03:37:01;5.57;;;4.10;;
16304;SDS011;8261;47.678;-122.174;2022-11-03T03:39:34;5.13;;;4.73;;
16304;SDS011;8261;47.678;-122.174;2022-11-03T03:42:09;4.70;;;4.07;;
16304;SDS011;8261;47.678;-122.174;2022-11-03T03:44:45;6.23;;;5.63;;
16304;SDS011;8261;47.678;-122.174;2022-11-03T03:47:18;7.30;;;6.57;;
16304;SDS011;8261;47.678;-122.174;2022-11-03T03:49:52;7.10;;;6.40;;
16304;SDS011;8261;47.678;-122.174;2022-11-03T03:52:23;5.30;;;4.87;;
16304;SDS011;8261;47.678;-122.174;2022-11-03T03:54:55;5.00;;;4.50;;
16304;SDS011;8261;47.678;-122.174;2022-11-03T03:57:26;5.27;;;4.57;;
16304;SDS011;8261;47.678;-122.174;2022-11-03T04:00:04;5.47;;;4.60;;
16304;SDS011;8261;47.678;-122.174;2022-11-03T04:02:37;4.80;;;4.30;;
16304;SDS011;8261;47.678;-122.174;2022-11-03T04:05:08;9.53;;;7.57;;
16304;SDS011;8261;47.678;-122.174;2022-11-03T04:07:40;7.00;;;6.27;;
16304;SDS011;8261;47.678;-122.174;2022-11-03T04:10:18;8.37;;;5.70;;
16304;SDS011;8261;47.678;-122.174;2022-11-03T04:12:50;4.77;;;4.27;;
16304;SDS011;8261;47.678;-122.174;2022-11-03T04:15:39;4.20;;;3.80;;
16304;SDS011;8261;47.678;-122.174;2022-11-03T04:18:23;5.17;;;4.00;;
16304;SDS011;8261;47.678;-122.174;2022-11-03T04:21:11;5.53;;;5.03;;
16304;SDS011;8261;47.678;-122.174;2022-11-03T04:23:59;4.73;;;4.20;;
16304;SDS011;8261;47.678;-122.174;2022-11-03T04:26:30;4.20;;;3.70;;
16304;SDS011;8261;47.678;-122.174;2022-11-03T04:29:03;4.90;;;4.23;;
16304;SDS011;8261;47.678;-122.174;2022-11-03T04:31:38;4.93;;;4.20;;
16304;SDS011;8261;47.678;-122.174;2022-11-03T04:34:09;5.97;;;4.30;;
16304;SDS011;8261;47.678;-122.174;2022-11-03T04:36:41;5.43;;;4.80;;
16304;SDS011;8261;47.678;-122.174;2022-11-03T04:39:14;4.80;;;4.10;;
16304;SDS011;8261;47.678;-122.174;2022-11-03T04:41:47;5.20;;;4.30;;
16304;SDS011;8261;47.678;-122.174;2022-11-03T04:44:19;4.30;;;3.90;;
16304;SDS011;8261;47.678;-122.174;2022-11-03T04:46:52;4.70;;;4.00;;
16304;SDS011;8261;47.678;-122.174;2022-11-03T04:49:23;5.23;;;4.73;;
16304;SDS011;8261;47.678;-122.174;2022-11-03T04:51:55;5.80;;;4.53;;
16304;SDS011;8261;47.678;-122.174;2022-11-03T04:54:26;4.10;;;3.70;;
16304;SDS011;8261;47.678;-122.174;2022-11-03T04:56:58;5.03;;;4.00;;
16304;SDS011;8261;47.678;-122.174;2022-11-03T04:59:33;4.93;;;4.20;;
16304;SDS011;8261;47.678;-122.174;2022-11-03T05:02:10;4.03;;;3.73;;
16304;SDS011;8261;47.678;-122.174;2022-11-03T05:04:44;4.53;;;4.13;;
16304;SDS011;8261;47.678;-122.174;2022-11-03T05:07:20;4.17;;;3.77;;
16304;SDS011;8261;47.678;-122.174;2022-11-03T05:09:54;4.80;;;4.27;;
16304;SDS011;8261;47.678;-122.174;2022-11-03T05:12:26;5.07;;;4.43;;
16304;SDS011;8261;47.678;-122.174;2022-11-03T05:14:58;6.23;;;4.57;;
16304;SDS011;8261;47.678;-122.174;2022-11-03T05:17:38;5.23;;;4.00;;
16304;SDS011;8261;47.678;-122.174;2022-11-03T05:20:19;4.30;;;3.90;;
16304;SDS011;8261;47.678;-122.174;2022-11-03T05:23:02;4.53;;;4.13;;
16304;SDS011;8261;47.678;-122.174;2022-11-03T05:25:37;5.10;;;3.80;;
16304;SDS011;8261;47.678;-122.174;2022-11-03T05:28:23;4.30;;;3.90;;
16304;SDS011;8261;47.678;-122.174;2022-11-03T05:30:57;4.57;;;4.17;;
16304;SDS011;8261;47.678;-122.174;2022-11-03T05:33:33;5.40;;;4.60;;
16304;SDS011;8261;47.678;-122.174;2022-11-03T05:36:10;4.67;;;4.27;;
16304;SDS011;8261;47.678;-122.174;2022-11-03T05:38:43;5.17;;;4.67;;
16304;SDS011;8261;47.678;-122.174;2022-11-03T05:41:18;5.80;;;5.20;;
16304;SDS011;8261;47.678;-122.174;2022-11-03T05:43:52;5.70;;;5.07;;
16304;SDS011;8261;47.678;-122.174;2022-11-03T05:46:28;5.53;;;5.00;;
16304;SDS011;8261;47.678;-122.174;2022-11-03T05:49:02;8.63;;;7.73;;
16304;SDS011;8261;47.678;-122.174;2022-11-03T05:51:36;8.10;;;7.20;;
16304;SDS011;8261;47.678;-122.174;2022-11-03T05:54:14;11.00;;;8.80;;
16304;SDS011;8261;47.678;-122.174;2022-11-03T05:56:49;8.23;;;7.43;;
16304;SDS011;8261;47.678;-122.174;2022-11-03T05:59:22;9.17;;;7.17;;
16304;SDS011;8261;47.678;-122.174;2022-11-03T06:01:57;6.93;;;5.63;;
16304;SDS011;8261;47.678;-122.174;2022-11-03T06:04:33;6.00;;;4.63;;
16304;SDS011;8261;47.678;-122.174;2022-11-03T06:07:20;4.97;;;4.47;;
16304;SDS011;8261;47.678;-122.174;2022-11-03T06:09:56;5.83;;;5.33;;
16304;SDS011;8261;47.678;-122.174;2022-11-03T06:12:27;4.83;;;4.33;;
16304;SDS011;8261;47.678;-122.174;2022-11-03T06:15:00;4.53;;;4.13;;
16304;SDS011;8261;47.678;-122.174;2022-11-03T06:17:36;3.97;;;3.67;;
16304;SDS011;8261;47.678;-122.174;2022-11-03T06:20:14;4.30;;;3.90;;
16304;SDS011;8261;47.678;-122.174;2022-11-03T06:22:49;4.23;;;3.83;;
16304;SDS011;8261;47.678;-122.174;2022-11-03T06:25:27;4.00;;;3.70;;
16304;SDS011;8261;47.678;-122.174;2022-11-03T06:28:02;3.50;;;3.20;;
16304;SDS011;8261;47.678;-122.174;2022-11-03T06:30:34;3.43;;;3.10;;
16304;SDS011;8261;47.678;-122.174;2022-11-03T06:33:11;4.00;;;3.30;;
16304;SDS011;8261;47.678;-122.174;2022-11-03T06:35:47;3.90;;;3.60;;
16304;SDS011;8261;47.678;-122.174;2022-11-03T06:38:20;7.70;;;4.90;;
16304;SDS011;8261;47.678;-122.174;2022-11-03T06:40:54;5.77;;;5.27;;
16304;SDS011;8261;47.678;-122.174;2022-11-03T06:43:26;5.10;;;4.70;;
16304;SDS011;8261;47.678;-122.174;2022-11-03T06:46:08;4.97;;;4.47;;
16304;SDS011;8261;47.678;-122.174;2022-11-03T06:48:47;4.53;;;4.00;;
16304;SDS011;8261;47.678;-122.174;2022-11-03T06:51:24;3.77;;;3.47;;
16304;SDS011;8261;47.678;-122.174;2022-11-03T06:53:57;4.30;;;3.90;;
16304;SDS011;8261;47.678;-122.174;2022-11-03T06:56:30;4.30;;;3.90;;
16304;SDS011;8261;47.678;-122.174;2022-11-03T06:59:06;5.10;;;4.03;;
16304;SDS011;8261;47.678;-122.174;2022-11-03T07:01:41;3.73;;;3.43;;
16304;SDS011;8261;47.678;-122.174;2022-11-03T07:04:15;4.80;;;3.47;;
16304;SDS011;8261;47.678;-122.174;2022-11-03T07:06:51;5.00;;;3.17;;
16304;SDS011;8261;47.678;-122.174;2022-11-03T07:09:24;3.13;;;2.83;;
16304;SDS011;8261;47.678;-122.174;2022-11-03T07:11:56;3.63;;;2.93;;
16304;SDS011;8261;47.678;-122.174;2022-11-03T07:14:30;3.83;;;3.47;;
16304;SDS011;8261;47.678;-122.174;2022-11-03T07:17:02;3.70;;;2.73;;
16304;SDS011;8261;47.678;-122.174;2022-11-03T07:19:35;3.37;;;3.07;;
16304;SDS011;8261;47.678;-122.174;2022-11-03T07:22:14;3.00;;;2.70;;
16304;SDS011;8261;47.678;-122.174;2022-11-03T07:24:49;2.90;;;2.70;;
16304;SDS011;8261;47.678;-122.174;2022-11-03T07:27:23;3.07;;;2.87;;
16304;SDS011;8261;47.678;-122.174;2022-11-03T07:29:57;4.00;;;2.90;;
16304;SDS011;8261;47.678;-122.174;2022-11-03T07:32:32;3.60;;;2.93;;
16304;SDS011;8261;47.678;-122.174;2022-11-03T07:35:09;2.63;;;2.43;;
16304;SDS011;8261;47.678;-122.174;2022-11-03T07:38:21;3.10;;;2.80;;
16304;SDS011;8261;47.678;-122.174;2022-11-03T07:40:53;3.33;;;2.70;;
16304;SDS011;8261;47.678;-122.174;2022-11-03T07:43:29;3.03;;;2.73;;
16304;SDS011;8261;47.678;-122.174;2022-11-03T07:46:03;2.70;;;2.50;;
16304;SDS011;8261;47.678;-122.174;2022-11-03T07:48:37;4.70;;;2.77;;
16304;SDS011;8261;47.678;-122.174;2022-11-03T07:51:15;3.80;;;3.00;;
16304;SDS011;8261;47.678;-122.174;2022-11-03T07:53:51;4.53;;;3.87;;
16304;SDS011;8261;47.678;-122.174;2022-11-03T07:56:26;4.10;;;3.63;;
16304;SDS011;8261;47.678;-122.174;2022-11-03T07:59:03;4.70;;;3.87;;
16304;SDS011;8261;47.678;-122.174;2022-11-03T08:01:42;3.93;;;3.47;;
16304;SDS011;8261;47.678;-122.174;2022-11-03T08:04:17;4.30;;;3.90;;
16304;SDS011;8261;47.678;-122.174;2022-11-03T08:06:50;5.30;;;4.07;;
16304;SDS011;8261;47.678;-122.174;2022-11-03T08:09:24;5.37;;;4.60;;
16304;SDS011;8261;47.678;-122.174;2022-11-03T08:11:55;5.23;;;4.73;;
16304;SDS011;8261;47.678;-122.174;2022-11-03T08:14:27;6.90;;;5.27;;
16304;SDS011;8261;47.678;-122.174;2022-11-03T08:16:58;7.67;;;6.07;;
16304;SDS011;8261;47.678;-122.174;2022-11-03T08:19:30;12.13;;;6.03;;
16304;SDS011;8261;47.678;-122.174;2022-11-03T08:22:01;25.07;;;7.30;;
16304;SDS011;8261;47.678;-122.174;2022-11-03T08:24:34;42.83;;;7.00;;
16304;SDS011;8261;47.678;-122.174;2022-11-03T08:27:05;49.17;;;7.60;;
16304;SDS011;8261;47.678;-122.174;2022-11-03T08:29:38;82.67;;;10.00;;
16304;SDS011;8261;47.678;-122.174;2022-11-03T08:32:09;122.07;;;10.17;;
16304;SDS011;8261;47.678;-122.174;2022-11-03T08:34:41;95.97;;;9.00;;
16304;SDS011;8261;47.678;-122.174;2022-11-03T08:37:14;155.73;;;11.47;;
16304;SDS011;8261;47.678;-122.174;2022-11-03T08:39:47;188.27;;;11.93;;
16304;SDS011;8261;47.678;-122.174;2022-11-03T08:42:18;129.07;;;9.87;;
16304;SDS011;8261;47.678;-122.174;2022-11-03T08:44:51;126.87;;;10.27;;
16304;SDS011;8261;47.678;-122.174;2022-11-03T08:47:23;88.70;;;8.90;;
16304;SDS011;8261;47.678;-122.174;2022-11-03T08:49:54;40.83;;;6.97;;
16304;SDS011;8261;47.678;-122.174;2022-11-03T08:52:25;26.47;;;6.87;;
16304;SDS011;8261;47.678;-122.174;2022-11-03T08:54:58;16.57;;;5.97;;
16304;SDS011;8261;47.678;-122.174;2022-11-03T08:57:29;7.83;;;5.27;;
16304;SDS011;8261;47.678;-122.174;2022-11-03T09:00:02;5.83;;;5.00;;
16304;SDS011;8261;47.678;-122.174;2022-11-03T09:02:34;5.83;;;4.77;;
16304;SDS011;8261;47.678;-122.174;2022-11-03T09:05:06;5.33;;;4.83;;
16304;SDS011;8261;47.678;-122.174;2022-11-03T09:07:39;6.63;;;4.93;;
16304;SDS011;8261;47.678;-122.174;2022-11-03T09:10:33;6.10;;;4.93;;
16304;SDS011;8261;47.678;-122.174;2022-11-03T09:13:08;5.73;;;4.73;;
16304;SDS011;8261;47.678;-122.174;2022-11-03T09:15:39;5.70;;;4.67;;
16304;SDS011;8261;47.678;-122.174;2022-11-03T09:18:11;7.20;;;5.17;;
16304;SDS011;8261;47.678;-122.174;2022-11-03T09:20:42;5.33;;;4.80;;
16304;SDS011;8261;47.678;-122.174;2022-11-03T09:23:13;5.47;;;4.67;;
16304;SDS011;8261;47.678;-122.174;2022-11-03T09:25:46;6.27;;;5.60;;
16304;SDS011;8261;47.678;-122.174;2022-11-03T09:28:18;5.17;;;4.63;;
16304;SDS011;8261;47.678;-122.174;2022-11-03T09:30:49;5.63;;;4.97;;
16304;SDS011;8261;47.678;-122.174;2022-11-03T09:33:20;6.20;;;4.23;;
16304;SDS011;8261;47.678;-122.174;2022-11-03T09:35:51;4.93;;;4.43;;
16304;SDS011;8261;47.678;-122.174;2022-11-03T09:38:23;5.43;;;4.70;;
16304;SDS011;8261;47.678;-122.174;2022-11-03T09:40:57;5.27;;;4.63;;
16304;SDS011;8261;47.678;-122.174;2022-11-03T09:43:39;4.77;;;4.33;;
16304;SDS011;8261;47.678;-122.174;2022-11-03T09:46:10;6.47;;;4.33;;
16304;SDS011;8261;47.678;-122.174;2022-11-03T09:48:42;5.27;;;4.57;;
16304;SDS011;8261;47.678;-122.174;2022-11-03T09:51:15;5.27;;;4.53;;
16304;SDS011;8261;47.678;-122.174;2022-11-03T09:53:48;4.27;;;3.87;;
16304;SDS011;8261;47.678;-122.174;2022-11-03T09:56:20;5.23;;;4.73;;
16304;SDS011;8261;47.678;-122.174;2022-11-03T09:58:53;6.10;;;5.10;;
16304;SDS011;8261;47.678;-122.174;2022-11-03T10:01:24;5.33;;;4.80;;
16304;SDS011;8261;47.678;-122.174;2022-11-03T10:03:56;5.63;;;5.03;;
16304;SDS011;8261;47.678;-122.174;2022-11-03T10:06:29;5.80;;;4.87;;
16304;SDS011;8261;47.678;-122.174;2022-11-03T10:09:01;5.47;;;4.93;;
16304;SDS011;8261;47.678;-122.174;2022-11-03T10:11:37;6.30;;;4.90;;
16304;SDS011;8261;47.678;-122.174;2022-11-03T10:14:09;5.50;;;4.93;;
16304;SDS011;8261;47.678;-122.174;2022-11-03T10:16:44;6.00;;;5.13;;
16304;SDS011;8261;47.678;-122.174;2022-11-03T10:19:27;5.57;;;4.83;;
16304;SDS011;8261;47.678;-122.174;2022-11-03T10:21:59;6.60;;;5.60;;
16304;SDS011;8261;47.678;-122.174;2022-11-03T10:24:30;6.03;;;5.43;;
16304;SDS011;8261;47.678;-122.174;2022-11-03T10:27:05;7.50;;;5.77;;
16304;SDS011;8261;47.678;-122.174;2022-11-03T10:30:05;6.23;;;5.63;;
16304;SDS011;8261;47.678;-122.174;2022-11-03T10:32:37;6.10;;;5.20;;
16304;SDS011;8261;47.678;-122.174;2022-11-03T10:38:13;5.83;;;5.23;;
16304;SDS011;8261;47.678;-122.174;2022-11-03T10:40:54;8.30;;;5.63;;
16304;SDS011;8261;47.678;-122.174;2022-11-03T10:43:28;6.60;;;5.90;;
16304;SDS011;8261;47.678;-122.174;2022-11-03T10:46:08;6.00;;;5.40;;
16304;SDS011;8261;47.678;-122.174;2022-11-03T10:49:02;6.17;;;5.57;;
16304;SDS011;8261;47.678;-122.174;2022-11-03T10:51:35;5.13;;;4.43;;
16304;SDS011;8261;47.678;-122.174;2022-11-03T10:54:09;6.20;;;5.60;;
16304;SDS011;8261;47.678;-122.174;2022-11-03T10:56:43;5.50;;;5.00;;
16304;SDS011;8261;47.678;-122.174;2022-11-03T10:59:18;5.97;;;5.33;;
16304;SDS011;8261;47.678;-122.174;2022-11-03T11:01:50;5.33;;;4.83;;
16304;SDS011;8261;47.678;-122.174;2022-11-03T11:04:21;6.37;;;5.57;;
16304;SDS011;8261;47.678;-122.174;2022-11-03T11:06:52;5.70;;;5.10;;
16304;SDS011;8261;47.678;-122.174;2022-11-03T11:09:24;5.80;;;5.20;;
16304;SDS011;8261;47.678;-122.174;2022-11-03T11:12:00;5.57;;;4.73;;
16304;SDS011;8261;47.678;-122.174;2022-11-03T11:14:36;5.23;;;4.57;;
16304;SDS011;8261;47.678;-122.174;2022-11-03T11:20:17;6.50;;;4.67;;
16304;SDS011;8261;47.678;-122.174;2022-11-03T11:26:14;5.20;;;4.70;;
16304;SDS011;8261;47.678;-122.174;2022-11-03T11:44:55;6.07;;;5.47;;
16304;SDS011;8261;47.678;-122.174;2022-11-03T11:47:30;7.03;;;6.07;;
16304;SDS011;8261;47.678;-122.174;2022-11-03T11:50:23;6.93;;;5.50;;
16304;SDS011;8261;47.678;-122.174;2022-11-03T11:52:57;6.20;;;5.60;;
16304;SDS011;8261;47.678;-122.174;2022-11-03T11:55:34;7.53;;;6.47;;
16304;SDS011;8261;47.678;-122.174;2022-11-03T11:58:13;6.57;;;5.80;;
16304;SDS011;8261;47.678;-122.174;2022-11-03T12:01:03;8.07;;;6.20;;
16304;SDS011;8261;47.678;-122.174;2022-11-03T12:03:48;6.53;;;5.87;;
16304;SDS011;8261;47.678;-122.174;2022-11-03T12:06:31;7.20;;;6.33;;
16304;SDS011;8261;47.678;-122.174;2022-11-03T12:09:04;8.67;;;6.17;;
16304;SDS011;8261;47.678;-122.174;2022-11-03T12:11:40;7.10;;;6.40;;
16304;SDS011;8261;47.678;-122.174;2022-11-03T12:14:21;8.13;;;6.47;;
16304;SDS011;8261;47.678;-122.174;2022-11-03T12:16:56;7.50;;;6.67;;
16304;SDS011;8261;47.678;-122.174;2022-11-03T12:19:51;6.67;;;6.00;;
16304;SDS011;8261;47.678;-122.174;2022-11-03T12:22:39;6.93;;;6.10;;
16304;SDS011;8261;47.678;-122.174;2022-11-03T12:28:06;7.37;;;6.07;;
16304;SDS011;8261;47.678;-122.174;2022-11-03T12:30:38;7.43;;;6.63;;
16304;SDS011;8261;47.678;-122.174;2022-11-03T12:33:11;7.80;;;6.90;;
16304;SDS011;8261;47.678;-122.174;2022-11-03T12:35:44;6.93;;;6.20;;
16304;SDS011;8261;47.678;-122.174;2022-11-03T12:38:15;7.57;;;6.43;;
16304;SDS011;8261;47.678;-122.174;2022-11-03T12:40:47;8.87;;;6.97;;
16304;SDS011;8261;47.678;-122.174;2022-11-03T12:43:20;9.07;;;6.57;;
16304;SDS011;8261;47.678;-122.174;2022-11-03T12:45:51;6.83;;;5.93;;
16304;SDS011;8261;47.678;-122.174;2022-11-03T12:48:24;7.57;;;6.73;;
16304;SDS011;8261;47.678;-122.174;2022-11-03T12:50:55;7.33;;;6.63;;
16304;SDS011;8261;47.678;-122.174;2022-11-03T12:53:26;8.20;;;7.00;;
16304;SDS011;8261;47.678;-122.174;2022-11-03T12:55:57;7.73;;;6.93;;
16304;SDS011;8261;47.678;-122.174;2022-11-03T12:58:28;8.40;;;6.90;;
16304;SDS011;8261;47.678;-122.174;2022-11-03T13:00:59;7.90;;;7.10;;
16304;SDS011;8261;47.678;-122.174;2022-11-03T13:03:35;8.30;;;7.30;;
16304;SDS011;8261;47.678;-122.174;2022-11-03T13:06:07;8.27;;;6.60;;
16304;SDS011;8261;47.678;-122.174;2022-11-03T13:08:41;11.17;;;7.63;;
16304;SDS011;8261;47.678;-122.174;2022-11-03T13:11:18;9.10;;;8.00;;
16304;SDS011;8261;47.678;-122.174;2022-11-03T13:14:06;8.17;;;7.13;;
16304;SDS011;8261;47.678;-122.174;2022-11-03T13:16:38;8.27;;;7.00;;
16304;SDS011;8261;47.678;-122.174;2022-11-03T13:19:12;7.73;;;6.77;;
16304;SDS011;8261;47.678;-122.174;2022-11-03T13:21:44;8.30;;;7.50;;
16304;SDS011;8261;47.678;-122.174;2022-11-03T13:24:15;8.70;;;7.10;;
16304;SDS011;8261;47.678;-122.174;2022-11-03T13:26:47;8.13;;;7.30;;
16304;SDS011;8261;47.678;-122.174;2022-11-03T13:29:18;7.83;;;7.03;;
16304;SDS011;8261;47.678;-122.174;2022-11-03T13:31:49;8.13;;;7.30;;
16304;SDS011;8261;47.678;-122.174;2022-11-03T13:34:22;8.17;;;7.10;;
16304;SDS011;8261;47.678;-122.174;2022-11-03T13:36:54;8.60;;;7.10;;
16304;SDS011;8261;47.678;-122.174;2022-11-03T13:39:26;7.93;;;7.13;;
16304;SDS011;8261;47.678;-122.174;2022-11-03T13:41:57;7.90;;;7.10;;
16304;SDS011;8261;47.678;-122.174;2022-11-03T13:44:28;8.30;;;7.27;;
16304;SDS011;8261;47.678;-122.174;2022-11-03T13:46:59;8.93;;;7.17;;
16304;SDS011;8261;47.678;-122.174;2022-11-03T13:49:39;7.73;;;6.93;;
16304;SDS011;8261;47.678;-122.174;2022-11-03T13:52:30;9.57;;;6.30;;
16304;SDS011;8261;47.678;-122.174;2022-11-03T13:55:02;9.93;;;6.73;;
16304;SDS011;8261;47.678;-122.174;2022-11-03T13:57:53;8.03;;;7.23;;
16304;SDS011;8261;47.678;-122.174;2022-11-03T14:00:44;7.83;;;7.03;;
16304;SDS011;8261;47.678;-122.174;2022-11-03T14:03:16;8.37;;;7.43;;
16304;SDS011;8261;47.678;-122.174;2022-11-03T14:06:09;8.17;;;7.33;;
16304;SDS011;8261;47.678;-122.174;2022-11-03T14:08:40;7.40;;;6.70;;
16304;SDS011;8261;47.678;-122.174;2022-11-03T14:11:14;7.87;;;7.07;;
16304;SDS011;8261;47.678;-122.174;2022-11-03T14:14:03;8.30;;;7.47;;
16304;SDS011;8261;47.678;-122.174;2022-11-03T14:16:35;7.17;;;6.47;;
16304;SDS011;8261;47.678;-122.174;2022-11-03T14:19:06;7.73;;;6.93;;
16304;SDS011;8261;47.678;-122.174;2022-11-03T14:21:39;7.20;;;6.40;;
16304;SDS011;8261;47.678;-122.174;2022-11-03T14:24:11;8.30;;;6.60;;
16304;SDS011;8261;47.678;-122.174;2022-11-03T14:26:42;7.10;;;6.40;;
16304;SDS011;8261;47.678;-122.174;2022-11-03T14:29:13;7.73;;;6.73;;
16304;SDS011;8261;47.678;-122.174;2022-11-03T14:31:45;6.87;;;6.17;;
16304;SDS011;8261;47.678;-122.174;2022-11-03T14:34:17;7.23;;;6.13;;
16304;SDS011;8261;47.678;-122.174;2022-11-03T14:36:50;7.20;;;6.20;;
16304;SDS011;8261;47.678;-122.174;2022-11-03T14:39:22;6.27;;;5.67;;
16304;SDS011;8261;47.678;-122.174;2022-11-03T14:41:53;6.37;;;5.77;;
16304;SDS011;8261;47.678;-122.174;2022-11-03T14:44:31;7.53;;;6.20;;
16304;SDS011;8261;47.678;-122.174;2022-11-03T14:47:05;6.20;;;5.60;;
16304;SDS011;8261;47.678;-122.174;2022-11-03T14:49:39;9.00;;;6.13;;
16304;SDS011;8261;47.678;-122.174;2022-11-03T14:52:13;7.17;;;6.47;;
16304;SDS011;8261;47.678;-122.174;2022-11-03T14:54:45;7.23;;;6.13;;
16304;SDS011;8261;47.678;-122.174;2022-11-03T14:57:17;7.10;;;6.40;;
16304;SDS011;8261;47.678;-122.174;2022-11-03T14:59:50;7.10;;;6.33;;
16304;SDS011;8261;47.678;-122.174;2022-11-03T15:02:23;7.80;;;6.80;;
16304;SDS011;8261;47.678;-122.174;2022-11-03T15:04:54;9.83;;;6.27;;
16304;SDS011;8261;47.678;-122.174;2022-11-03T15:07:28;6.93;;;6.10;;
16304;SDS011;8261;47.678;-122.174;2022-11-03T15:10:00;7.07;;;5.90;;
16304;SDS011;8261;47.678;-122.174;2022-11-03T15:12:31;7.20;;;6.10;;
16304;SDS011;8261;47.678;-122.174;2022-11-03T15:15:03;6.40;;;5.80;;
16304;SDS011;8261;47.678;-122.174;2022-11-03T15:17:35;6.90;;;5.13;;
16304;SDS011;8261;47.678;-122.174;2022-11-03T15:20:06;6.17;;;5.10;;
16304;SDS011;8261;47.678;-122.174;2022-11-03T15:22:39;7.03;;;5.33;;
16304;SDS011;8261;47.678;-122.174;2022-11-03T15:25:31;7.53;;;5.53;;
16304;SDS011;8261;47.678;-122.174;2022-11-03T15:28:02;6.73;;;5.43;;
16304;SDS011;8261;47.678;-122.174;2022-11-03T15:30:35;8.53;;;5.00;;
16304;SDS011;8261;47.678;-122.174;2022-11-03T15:33:06;6.63;;;5.40;;